TAP7 LPPT-LEMD
Flight info
| Callsign | TAP7 |
|---|---|
| Flight time | 0h 53m |
| Altitude | 32000 |
| Route | ORVED1N ORVED DCT OGERO DCT ROLDO DCT RUKER Z409 TLD TLD7A |
| Aircraft | A321/M-SDE3FGHIRWY/LB1 |
Departure
| Time | 2026-05-07 16:23 |
|---|---|
| Airport | Lisbon Humberto Delgado Airport (LPPT) |
Arrival
| Time | 2026-05-07 17:17 |
|---|---|
| Airport | Adolfo Suárez Madrid–Barajas Airport (LEMD) |
| Time | Latitude | Longitude | Altitude | Speed | Heading |
|---|---|---|---|---|---|
| 2026-05-07 15:56 | 38.77980 | -9.12955 | 327 ft | 0 kts | 303° |
| 2026-05-07 16:13 | 38.77975 | -9.12945 | 331 ft | 4 kts | 304° |
| 2026-05-07 16:14 | 38.77959 | -9.12916 | 326 ft | 4 kts | 300° |
| 2026-05-07 16:14 | 38.77950 | -9.12887 | 328 ft | 4 kts | 255° |
| 2026-05-07 16:14 | 38.77954 | -9.12877 | 327 ft | 0 kts | 213° |
| 2026-05-07 16:17 | 38.77886 | -9.12932 | 329 ft | 23 kts | 212° |
| 2026-05-07 16:18 | 38.77774 | -9.13079 | 332 ft | 20 kts | 263° |
| 2026-05-07 16:18 | 38.77743 | -9.13235 | 337 ft | 18 kts | 256° |
| 2026-05-07 16:18 | 38.77707 | -9.13353 | 338 ft | 10 kts | 218° |
| 2026-05-07 16:18 | 38.77638 | -9.13396 | 344 ft | 14 kts | 202° |
| 2026-05-07 16:19 | 38.77502 | -9.13479 | 354 ft | 25 kts | 213° |
| 2026-05-07 16:19 | 38.77351 | -9.13512 | 347 ft | 22 kts | 171° |
| 2026-05-07 16:19 | 38.77274 | -9.13625 | 357 ft | 19 kts | 257° |
| 2026-05-07 16:19 | 38.77230 | -9.13840 | 360 ft | 28 kts | 229° |
| 2026-05-07 16:20 | 38.77055 | -9.13941 | 356 ft | 28 kts | 202° |
| 2026-05-07 16:20 | 38.76868 | -9.14039 | 351 ft | 30 kts | 203° |
| 2026-05-07 16:20 | 38.76677 | -9.14143 | 346 ft | 30 kts | 202° |
| 2026-05-07 16:20 | 38.76597 | -9.14245 | 339 ft | 15 kts | 278° |
| 2026-05-07 16:21 | 38.76658 | -9.14361 | 336 ft | 17 kts | 341° |
| 2026-05-07 16:21 | 38.76712 | -9.14353 | 336 ft | 0 kts | 21° |
| 2026-05-07 16:23 | 38.76827 | -9.14293 | 346 ft | 59 kts | 22° |
| 2026-05-07 16:23 | 38.77479 | -9.13946 | 364 ft | 139 kts | 22° |
| 2026-05-07 16:23 | 38.78564 | -9.13351 | 429 ft | 193 kts | 21° |
| 2026-05-07 16:23 | 38.79831 | -9.12640 | 1218 ft | 201 kts | 18° |
| 2026-05-07 16:24 | 38.81138 | -9.11914 | 2080 ft | 214 kts | 19° |
| 2026-05-07 16:24 | 38.82552 | -9.10969 | 2542 ft | 242 kts | 26° |
| 2026-05-07 16:24 | 38.84067 | -9.09836 | 3379 ft | 261 kts | 28° |
| 2026-05-07 16:24 | 38.85646 | -9.08617 | 4353 ft | 272 kts | 30° |
| 2026-05-07 16:25 | 38.87277 | -9.07345 | 5428 ft | 277 kts | 32° |
| 2026-05-07 16:25 | 38.88903 | -9.06027 | 6428 ft | 279 kts | 40° |
| 2026-05-07 16:25 | 38.90137 | -9.04119 | 7015 ft | 279 kts | 66° |
| 2026-05-07 16:25 | 38.90972 | -9.01852 | 7676 ft | 283 kts | 67° |
| 2026-05-07 16:26 | 38.91797 | -8.99546 | 8522 ft | 287 kts | 68° |
| 2026-05-07 16:26 | 38.92638 | -8.97170 | 9160 ft | 292 kts | 69° |
| 2026-05-07 16:26 | 38.93479 | -8.94780 | 9813 ft | 296 kts | 68° |
| 2026-05-07 16:26 | 38.94338 | -8.92341 | 10174 ft | 310 kts | 69° |
| 2026-05-07 16:27 | 38.95245 | -8.89758 | 10302 ft | 331 kts | 69° |
| 2026-05-07 16:27 | 38.96215 | -8.86996 | 10523 ft | 346 kts | 69° |
| 2026-05-07 16:27 | 38.97232 | -8.84117 | 11002 ft | 353 kts | 68° |
| 2026-05-07 16:27 | 38.98241 | -8.81267 | 11602 ft | 355 kts | 68° |
| 2026-05-07 16:28 | 38.99280 | -8.78334 | 12183 ft | 358 kts | 68° |
| 2026-05-07 16:28 | 39.00303 | -8.75439 | 12756 ft | 361 kts | 66° |
| 2026-05-07 16:28 | 39.01345 | -8.72480 | 13371 ft | 364 kts | 67° |
| 2026-05-07 16:28 | 39.02388 | -8.69507 | 13909 ft | 367 kts | 68° |
| 2026-05-07 16:29 | 39.03449 | -8.66481 | 14420 ft | 370 kts | 67° |
| 2026-05-07 16:29 | 39.04490 | -8.63513 | 15421 ft | 353 kts | 66° |
| 2026-05-07 16:29 | 39.05462 | -8.60750 | 16649 ft | 332 kts | 66° |
| 2026-05-07 16:29 | 39.06406 | -8.58060 | 17249 ft | 337 kts | 65° |
| 2026-05-07 16:30 | 39.07392 | -8.55238 | 17389 ft | 353 kts | 65° |
| 2026-05-07 16:30 | 39.08419 | -8.52294 | 17539 ft | 368 kts | 65° |
| 2026-05-07 16:30 | 39.09490 | -8.49223 | 17659 ft | 382 kts | 65° |
| 2026-05-07 16:30 | 39.10589 | -8.46060 | 17853 ft | 394 kts | 65° |
| 2026-05-07 16:31 | 39.11723 | -8.42798 | 17984 ft | 406 kts | 65° |
| 2026-05-07 16:31 | 39.12881 | -8.39467 | 18588 ft | 398 kts | 65° |
| 2026-05-07 16:31 | 39.13983 | -8.36286 | 19708 ft | 378 kts | 65° |
| 2026-05-07 16:31 | 39.15021 | -8.33279 | 20871 ft | 358 kts | 65° |
| 2026-05-07 16:32 | 39.16036 | -8.30342 | 21169 ft | 369 kts | 65° |
| 2026-05-07 16:32 | 39.17100 | -8.27271 | 21304 ft | 381 kts | 65° |
| 2026-05-07 16:32 | 39.18195 | -8.24110 | 21453 ft | 392 kts | 65° |
| 2026-05-07 16:32 | 39.19315 | -8.20871 | 21700 ft | 399 kts | 65° |
| 2026-05-07 16:33 | 39.20463 | -8.17545 | 21834 ft | 409 kts | 65° |
| 2026-05-07 16:33 | 39.21628 | -8.14179 | 22137 ft | 412 kts | 65° |
| 2026-05-07 16:33 | 39.22796 | -8.10810 | 22639 ft | 411 kts | 65° |
| 2026-05-07 16:33 | 39.23969 | -8.07436 | 23155 ft | 410 kts | 65° |
| 2026-05-07 16:34 | 39.25124 | -8.04110 | 23433 ft | 415 kts | 65° |
| 2026-05-07 16:34 | 39.26314 | -8.00666 | 23581 ft | 421 kts | 65° |
| 2026-05-07 16:34 | 39.27507 | -7.97202 | 23825 ft | 425 kts | 65° |
| 2026-05-07 16:34 | 39.28712 | -7.93704 | 24082 ft | 427 kts | 65° |
| 2026-05-07 16:35 | 39.29925 | -7.90176 | 24331 ft | 430 kts | 65° |
| 2026-05-07 16:35 | 39.31136 | -7.86648 | 24596 ft | 432 kts | 65° |
| 2026-05-07 16:35 | 39.32356 | -7.83089 | 24899 ft | 434 kts | 65° |
| 2026-05-07 16:35 | 39.33568 | -7.79547 | 25165 ft | 436 kts | 65° |
| 2026-05-07 16:36 | 39.34799 | -7.75946 | 25433 ft | 439 kts | 64° |
| 2026-05-07 16:36 | 39.36031 | -7.72338 | 25654 ft | 442 kts | 64° |
| 2026-05-07 16:36 | 39.37287 | -7.68664 | 25791 ft | 449 kts | 64° |
| 2026-05-07 16:36 | 39.38560 | -7.64933 | 25908 ft | 455 kts | 64° |
| 2026-05-07 16:37 | 39.39839 | -7.61170 | 26040 ft | 462 kts | 65° |
| 2026-05-07 16:37 | 39.41138 | -7.57343 | 26245 ft | 465 kts | 64° |
| 2026-05-07 16:37 | 39.42447 | -7.53491 | 26483 ft | 468 kts | 64° |
| 2026-05-07 16:37 | 39.43755 | -7.49637 | 26730 ft | 471 kts | 64° |
| 2026-05-07 16:38 | 39.45070 | -7.45747 | 27277 ft | 462 kts | 64° |
| 2026-05-07 16:38 | 39.46328 | -7.42011 | 28424 ft | 442 kts | 64° |
| 2026-05-07 16:38 | 39.47510 | -7.38487 | 29492 ft | 423 kts | 63° |
| 2026-05-07 16:38 | 39.48680 | -7.35015 | 30008 ft | 418 kts | 63° |
| 2026-05-07 16:39 | 39.49842 | -7.31576 | 30264 ft | 418 kts | 63° |
| 2026-05-07 16:39 | 39.51019 | -7.28101 | 30393 ft | 422 kts | 63° |
| 2026-05-07 16:39 | 39.52201 | -7.24609 | 30519 ft | 425 kts | 63° |
| 2026-05-07 16:39 | 39.53391 | -7.21075 | 30653 ft | 429 kts | 63° |
| 2026-05-07 16:40 | 39.54582 | -7.17515 | 30770 ft | 432 kts | 63° |
| 2026-05-07 16:40 | 39.55781 | -7.13926 | 30906 ft | 435 kts | 63° |
| 2026-05-07 16:40 | 39.56986 | -7.10320 | 30978 ft | 440 kts | 63° |
| 2026-05-07 16:41 | 39.59434 | -7.02969 | 31488 ft | 438 kts | 63° |
| 2026-05-07 16:41 | 39.60638 | -6.99341 | 31762 ft | 438 kts | 62° |
| 2026-05-07 16:41 | 39.61851 | -6.95694 | 31822 ft | 443 kts | 62° |
| 2026-05-07 16:42 | 39.64313 | -6.88294 | 31829 ft | 456 kts | 63° |
| 2026-05-07 16:42 | 39.66869 | -6.80621 | 31837 ft | 470 kts | 62° |
| 2026-05-07 16:43 | 39.69492 | -6.72702 | 31831 ft | 479 kts | 62° |
| 2026-05-07 16:43 | 39.72130 | -6.64664 | 31832 ft | 491 kts | 63° |
| 2026-05-07 16:44 | 39.74822 | -6.56429 | 31834 ft | 503 kts | 63° |
| 2026-05-07 16:44 | 39.77589 | -6.47977 | 31833 ft | 512 kts | 63° |
| 2026-05-07 16:45 | 39.80088 | -6.39227 | 31834 ft | 520 kts | 73° |
| 2026-05-07 16:45 | 39.81074 | -6.29914 | 31834 ft | 524 kts | 81° |
| 2026-05-07 16:46 | 39.81907 | -6.20487 | 31837 ft | 524 kts | 80° |
| 2026-05-07 16:46 | 39.82750 | -6.11061 | 31840 ft | 524 kts | 81° |
| 2026-05-07 16:47 | 39.83586 | -6.01624 | 31845 ft | 524 kts | 80° |
| 2026-05-07 16:47 | 39.84399 | -5.92254 | 31842 ft | 525 kts | 80° |
| 2026-05-07 16:48 | 39.85211 | -5.82793 | 31841 ft | 525 kts | 80° |
| 2026-05-07 16:48 | 39.86007 | -5.73356 | 31849 ft | 525 kts | 81° |
| 2026-05-07 16:49 | 39.86795 | -5.63936 | 31855 ft | 526 kts | 80° |
| 2026-05-07 16:49 | 39.87581 | -5.54462 | 31854 ft | 526 kts | 80° |
| 2026-05-07 16:50 | 39.88369 | -5.44994 | 31860 ft | 526 kts | 80° |
| 2026-05-07 16:50 | 39.89153 | -5.35496 | 31857 ft | 526 kts | 80° |
| 2026-05-07 16:51 | 39.89921 | -5.26011 | 31865 ft | 527 kts | 80° |
| 2026-05-07 16:51 | 39.90674 | -5.16570 | 31864 ft | 527 kts | 80° |
| 2026-05-07 16:52 | 39.91426 | -5.07054 | 31864 ft | 527 kts | 80° |
| 2026-05-07 16:52 | 39.92046 | -4.99157 | 31868 ft | 527 kts | 80° |
| 2026-05-07 16:53 | 39.92902 | -4.88101 | 31919 ft | 527 kts | 80° |
| 2026-05-07 16:53 | 39.93513 | -4.80189 | 31907 ft | 527 kts | 80° |
| 2026-05-07 16:54 | 39.94353 | -4.69134 | 31898 ft | 526 kts | 80° |
| 2026-05-07 16:54 | 39.94942 | -4.61177 | 31892 ft | 526 kts | 80° |
| 2026-05-07 16:55 | 39.95640 | -4.51754 | 31915 ft | 525 kts | 81° |
| 2026-05-07 16:55 | 39.97248 | -4.42643 | 31910 ft | 506 kts | 58° |
| 2026-05-07 16:55 | 39.99064 | -4.38782 | 31904 ft | 493 kts | 44° |
| 2026-05-07 16:56 | 40.01387 | -4.35563 | 31651 ft | 483 kts | 34° |
| 2026-05-07 16:56 | 40.04089 | -4.33012 | 30523 ft | 473 kts | 20° |
| 2026-05-07 16:56 | 40.10089 | -4.30827 | 29659 ft | 432 kts | 2° |
| 2026-05-07 16:57 | 40.12997 | -4.30211 | 29047 ft | 427 kts | 3° |
| 2026-05-07 16:57 | 40.15932 | -4.29576 | 28375 ft | 424 kts | 4° |
| 2026-05-07 16:57 | 40.18833 | -4.28934 | 27690 ft | 422 kts | 5° |
| 2026-05-07 16:57 | 40.21717 | -4.28291 | 26995 ft | 420 kts | 5° |
| 2026-05-07 16:58 | 40.24609 | -4.27648 | 26371 ft | 419 kts | 6° |
| 2026-05-07 16:58 | 40.27490 | -4.27011 | 25644 ft | 422 kts | 6° |
| 2026-05-07 16:58 | 40.30417 | -4.26369 | 24130 ft | 443 kts | 7° |
| 2026-05-07 16:58 | 40.33489 | -4.25689 | 23646 ft | 436 kts | 8° |
| 2026-05-07 16:59 | 40.36432 | -4.25075 | 23522 ft | 418 kts | 4° |
| 2026-05-07 16:59 | 40.39246 | -4.25009 | 23392 ft | 399 kts | 356° |
| 2026-05-07 16:59 | 40.41975 | -4.25100 | 23024 ft | 389 kts | 356° |
| 2026-05-07 16:59 | 40.44660 | -4.25180 | 22467 ft | 385 kts | 357° |
| 2026-05-07 17:00 | 40.47344 | -4.25254 | 22006 ft | 382 kts | 356° |
| 2026-05-07 17:00 | 40.49994 | -4.25327 | 21895 ft | 381 kts | 358° |
| 2026-05-07 17:00 | 40.52645 | -4.25403 | 21921 ft | 383 kts | 357° |
| 2026-05-07 17:00 | 40.55295 | -4.25482 | 21406 ft | 386 kts | 358° |
| 2026-05-07 17:01 | 40.58018 | -4.25562 | 20010 ft | 396 kts | 357° |
| 2026-05-07 17:01 | 40.60807 | -4.25646 | 18570 ft | 406 kts | 356° |
| 2026-05-07 17:01 | 40.63656 | -4.25736 | 16956 ft | 415 kts | 356° |
| 2026-05-07 17:01 | 40.66554 | -4.25826 | 15835 ft | 412 kts | 356° |
| 2026-05-07 17:02 | 40.69381 | -4.25905 | 15349 ft | 393 kts | 358° |
| 2026-05-07 17:02 | 40.71972 | -4.25469 | 15127 ft | 372 kts | 17° |
| 2026-05-07 17:02 | 40.74225 | -4.23950 | 14959 ft | 351 kts | 38° |
| 2026-05-07 17:02 | 40.75834 | -4.21695 | 14821 ft | 331 kts | 55° |
| 2026-05-07 17:03 | 40.77127 | -4.19258 | 14675 ft | 313 kts | 56° |
| 2026-05-07 17:03 | 40.78373 | -4.16895 | 13883 ft | 321 kts | 55° |
| 2026-05-07 17:03 | 40.79672 | -4.14426 | 12724 ft | 335 kts | 56° |
| 2026-05-07 17:03 | 40.80995 | -4.11910 | 12303 ft | 324 kts | 56° |
| 2026-05-07 17:04 | 40.82232 | -4.09565 | 12181 ft | 305 kts | 56° |
| 2026-05-07 17:04 | 40.83426 | -4.07303 | 12028 ft | 287 kts | 56° |
| 2026-05-07 17:04 | 40.84537 | -4.05192 | 11656 ft | 280 kts | 56° |
| 2026-05-07 17:04 | 40.85638 | -4.03094 | 11215 ft | 275 kts | 56° |
| 2026-05-07 17:05 | 40.86711 | -4.01046 | 10945 ft | 269 kts | 56° |
| 2026-05-07 17:05 | 40.87788 | -3.98994 | 10933 ft | 274 kts | 56° |
| 2026-05-07 17:05 | 40.88872 | -3.96932 | 10630 ft | 271 kts | 56° |
| 2026-05-07 17:05 | 40.89945 | -3.94887 | 10169 ft | 270 kts | 56° |
| 2026-05-07 17:06 | 40.91005 | -3.92868 | 9619 ft | 269 kts | 56° |
| 2026-05-07 17:06 | 40.92070 | -3.90832 | 9156 ft | 264 kts | 56° |
| 2026-05-07 17:06 | 40.93091 | -3.88876 | 8963 ft | 258 kts | 57° |
| 2026-05-07 17:06 | 40.94122 | -3.86896 | 9214 ft | 264 kts | 56° |
| 2026-05-07 17:07 | 40.95170 | -3.84886 | 9445 ft | 265 kts | 56° |
| 2026-05-07 17:07 | 40.96162 | -3.82827 | 9672 ft | 267 kts | 68° |
| 2026-05-07 17:07 | 40.96589 | -3.80439 | 9672 ft | 265 kts | 92° |
| 2026-05-07 17:07 | 40.96248 | -3.78090 | 9290 ft | 258 kts | 117° |
| 2026-05-07 17:08 | 40.95252 | -3.76128 | 8645 ft | 263 kts | 137° |
| 2026-05-07 17:08 | 40.93902 | -3.74377 | 7779 ft | 279 kts | 137° |
| 2026-05-07 17:08 | 40.92496 | -3.72548 | 7151 ft | 287 kts | 137° |
| 2026-05-07 17:08 | 40.91110 | -3.70726 | 6980 ft | 275 kts | 137° |
| 2026-05-07 17:09 | 40.89791 | -3.68981 | 6924 ft | 260 kts | 137° |
| 2026-05-07 17:09 | 40.88554 | -3.67343 | 6937 ft | 244 kts | 137° |
| 2026-05-07 17:09 | 40.87373 | -3.65786 | 6958 ft | 238 kts | 137° |
| 2026-05-07 17:09 | 40.86194 | -3.64242 | 6940 ft | 240 kts | 137° |
| 2026-05-07 17:10 | 40.85008 | -3.62688 | 6943 ft | 240 kts | 137° |
| 2026-05-07 17:10 | 40.83823 | -3.61128 | 6940 ft | 240 kts | 137° |
| 2026-05-07 17:10 | 40.82650 | -3.59582 | 6941 ft | 240 kts | 136° |
| 2026-05-07 17:10 | 40.81466 | -3.58030 | 6942 ft | 241 kts | 137° |
| 2026-05-07 17:11 | 40.80076 | -3.56739 | 6948 ft | 250 kts | 156° |
| 2026-05-07 17:11 | 40.78393 | -3.56101 | 6873 ft | 254 kts | 175° |
| 2026-05-07 17:11 | 40.76689 | -3.56051 | 6601 ft | 237 kts | 180° |
| 2026-05-07 17:11 | 40.75098 | -3.56053 | 6313 ft | 222 kts | 180° |
| 2026-05-07 17:12 | 40.73575 | -3.56049 | 6009 ft | 216 kts | 180° |
| 2026-05-07 17:12 | 40.72094 | -3.56041 | 5732 ft | 205 kts | 180° |
| 2026-05-07 17:12 | 40.70714 | -3.56034 | 5460 ft | 190 kts | 179° |
| 2026-05-07 17:12 | 40.69437 | -3.56027 | 5206 ft | 178 kts | 179° |
| 2026-05-07 17:13 | 40.68232 | -3.56020 | 4976 ft | 169 kts | 179° |
| 2026-05-07 17:13 | 40.67100 | -3.56014 | 4781 ft | 159 kts | 179° |
| 2026-05-07 17:13 | 40.66019 | -3.56008 | 4556 ft | 152 kts | 179° |
| 2026-05-07 17:13 | 40.64974 | -3.56002 | 4348 ft | 150 kts | 179° |
| 2026-05-07 17:14 | 40.63924 | -3.55996 | 4143 ft | 150 kts | 179° |
| 2026-05-07 17:14 | 40.62888 | -3.55991 | 3942 ft | 149 kts | 179° |
| 2026-05-07 17:14 | 40.61837 | -3.55985 | 3729 ft | 151 kts | 179° |
| 2026-05-07 17:14 | 40.60781 | -3.55979 | 3515 ft | 153 kts | 179° |
| 2026-05-07 17:15 | 40.59704 | -3.55973 | 3298 ft | 156 kts | 180° |
| 2026-05-07 17:15 | 40.58619 | -3.55967 | 3085 ft | 157 kts | 178° |
| 2026-05-07 17:15 | 40.57510 | -3.55961 | 2874 ft | 159 kts | 177° |
| 2026-05-07 17:15 | 40.56415 | -3.55955 | 2672 ft | 160 kts | 179° |
| 2026-05-07 17:16 | 40.55309 | -3.55949 | 2466 ft | 157 kts | 179° |
| 2026-05-07 17:16 | 40.54232 | -3.55943 | 2260 ft | 153 kts | 179° |
| 2026-05-07 17:16 | 40.53177 | -3.55938 | 2056 ft | 150 kts | 179° |
| 2026-05-07 17:16 | 40.52150 | -3.55929 | 1982 ft | 142 kts | 179° |
| 2026-05-07 17:17 | 40.51633 | -3.55933 | 1980 ft | 16 kts | 177° |
| 2026-05-07 17:17 | 40.51354 | -3.55929 | 1983 ft | 57 kts | 178° |
| 2026-05-07 17:17 | 40.50969 | -3.55994 | 1981 ft | 47 kts | 205° |
| 2026-05-07 17:17 | 40.50762 | -3.56138 | 1982 ft | 31 kts | 198° |
| 2026-05-07 17:18 | 40.50538 | -3.56149 | 1984 ft | 35 kts | 179° |
| 2026-05-07 17:18 | 40.50341 | -3.56148 | 1980 ft | 0 kts | 179° |
| 2026-05-07 17:18 | 40.50294 | -3.56148 | 1980 ft | 20 kts | 180° |
| 2026-05-07 17:18 | 40.50205 | -3.56252 | 1984 ft | 16 kts | 267° |
| 2026-05-07 17:19 | 40.50204 | -3.56394 | 1984 ft | 15 kts | 265° |
| 2026-05-07 17:19 | 40.50141 | -3.56460 | 1980 ft | 13 kts | 181° |
| 2026-05-07 17:19 | 40.50039 | -3.56494 | 1981 ft | 16 kts | 234° |
| 2026-05-07 17:19 | 40.49952 | -3.56552 | 1982 ft | 14 kts | 180° |
| 2026-05-07 17:20 | 40.49859 | -3.56552 | 1983 ft | 13 kts | 180° |
| 2026-05-07 17:20 | 40.49839 | -3.56552 | 1982 ft | 0 kts | 180° |
| 2026-05-07 17:20 | 40.49837 | -3.56552 | 1982 ft | 2 kts | 180° |
| 2026-05-07 17:21 | 40.49776 | -3.56552 | 1980 ft | 14 kts | 179° |
| 2026-05-07 17:21 | 40.49686 | -3.56553 | 1980 ft | 12 kts | 180° |
| 2026-05-07 17:21 | 40.49598 | -3.56550 | 1980 ft | 17 kts | 169° |
| 2026-05-07 17:21 | 40.49548 | -3.56488 | 1982 ft | 9 kts | 127° |
| 2026-05-07 17:22 | 40.49495 | -3.56459 | 1980 ft | 8 kts | 174° |
| 2026-05-07 17:22 | 40.49415 | -3.56458 | 1980 ft | 13 kts | 180° |